sensor_id;sensor_type;location;lat;lon;timestamp;P1;durP1;ratioP1;P2;durP2;ratioP2
37303;SDS011;23188;51.188;16.374;2022-09-25T00:02:30;25.65;;;19.98;;
37303;SDS011;23188;51.188;16.374;2022-09-25T00:06:31;23.83;;;19.25;;
37303;SDS011;23188;51.188;16.374;2022-09-25T00:10:33;27.65;;;21.10;;
37303;SDS011;23188;51.188;16.374;2022-09-25T00:14:40;25.10;;;18.62;;
37303;SDS011;23188;51.188;16.374;2022-09-25T00:18:41;23.22;;;19.32;;
37303;SDS011;23188;51.188;16.374;2022-09-25T00:22:54;29.82;;;21.20;;
37303;SDS011;23188;51.188;16.374;2022-09-25T00:26:56;25.43;;;19.48;;
37303;SDS011;23188;51.188;16.374;2022-09-25T00:30:59;22.07;;;18.60;;
37303;SDS011;23188;51.188;16.374;2022-09-25T00:35:00;22.37;;;17.30;;
37303;SDS011;23188;51.188;16.374;2022-09-25T00:39:02;24.55;;;17.90;;
37303;SDS011;23188;51.188;16.374;2022-09-25T00:43:04;26.90;;;19.62;;
37303;SDS011;23188;51.188;16.374;2022-09-25T00:47:14;26.37;;;19.65;;
37303;SDS011;23188;51.188;16.374;2022-09-25T00:51:21;22.75;;;19.15;;
37303;SDS011;23188;51.188;16.374;2022-09-25T00:55:27;22.95;;;18.15;;
37303;SDS011;23188;51.188;16.374;2022-09-25T00:59:32;22.93;;;19.07;;
37303;SDS011;23188;51.188;16.374;2022-09-25T01:03:39;28.27;;;20.15;;
37303;SDS011;23188;51.188;16.374;2022-09-25T01:07:43;44.08;;;24.60;;
37303;SDS011;23188;51.188;16.374;2022-09-25T01:11:47;99.90;;;62.10;;
37303;SDS011;23188;51.188;16.374;2022-09-25T01:16:01;54.95;;;34.15;;
37303;SDS011;23188;51.188;16.374;2022-09-25T01:33:19;31.23;;;20.90;;
37303;SDS011;23188;51.188;16.374;2022-09-25T01:38:12;33.75;;;21.33;;
37303;SDS011;23188;51.188;16.374;2022-09-25T01:41:46;24.60;;;19.05;;
37303;SDS011;23188;51.188;16.374;2022-09-25T01:45:59;28.45;;;20.62;;
37303;SDS011;23188;51.188;16.374;2022-09-25T01:50:28;31.45;;;20.37;;
37303;SDS011;23188;51.188;16.374;2022-09-25T01:54:38;45.52;;;27.45;;
37303;SDS011;23188;51.188;16.374;2022-09-25T01:58:52;44.25;;;26.52;;
37303;SDS011;23188;51.188;16.374;2022-09-25T02:02:59;44.93;;;28.07;;
37303;SDS011;23188;51.188;16.374;2022-09-25T02:07:13;40.63;;;27.17;;
37303;SDS011;23188;51.188;16.374;2022-09-25T02:11:20;34.98;;;25.05;;
37303;SDS011;23188;51.188;16.374;2022-09-25T02:15:28;35.25;;;24.05;;
37303;SDS011;23188;51.188;16.374;2022-09-25T02:19:34;35.10;;;23.87;;
37303;SDS011;23188;51.188;16.374;2022-09-25T02:24:41;35.50;;;22.55;;
37303;SDS011;23188;51.188;16.374;2022-09-25T02:28:22;34.88;;;24.77;;
37303;SDS011;23188;51.188;16.374;2022-09-25T02:32:30;38.92;;;22.65;;
37303;SDS011;23188;51.188;16.374;2022-09-25T02:36:33;32.88;;;20.88;;
37303;SDS011;23188;51.188;16.374;2022-09-25T02:45:18;31.45;;;21.95;;
37303;SDS011;23188;51.188;16.374;2022-09-25T02:49:54;32.05;;;23.27;;
37303;SDS011;23188;51.188;16.374;2022-09-25T02:54:29;38.95;;;24.15;;
37303;SDS011;23188;51.188;16.374;2022-09-25T02:58:46;35.43;;;23.92;;
37303;SDS011;23188;51.188;16.374;2022-09-25T03:02:56;26.70;;;22.42;;
37303;SDS011;23188;51.188;16.374;2022-09-25T03:07:00;28.87;;;23.38;;
37303;SDS011;23188;51.188;16.374;2022-09-25T03:11:02;28.77;;;22.70;;
37303;SDS011;23188;51.188;16.374;2022-09-25T03:15:12;34.78;;;26.12;;
37303;SDS011;23188;51.188;16.374;2022-09-25T03:19:13;39.98;;;23.05;;
37303;SDS011;23188;51.188;16.374;2022-09-25T03:23:16;33.10;;;24.95;;
37303;SDS011;23188;51.188;16.374;2022-09-25T03:27:17;29.52;;;23.80;;
37303;SDS011;23188;51.188;16.374;2022-09-25T03:31:20;24.80;;;20.40;;
37303;SDS011;23188;51.188;16.374;2022-09-25T03:35:22;30.62;;;23.40;;
37303;SDS011;23188;51.188;16.374;2022-09-25T03:39:23;30.00;;;24.95;;
37303;SDS011;23188;51.188;16.374;2022-09-25T03:43:24;32.28;;;24.40;;
37303;SDS011;23188;51.188;16.374;2022-09-25T03:47:25;33.20;;;22.90;;
37303;SDS011;23188;51.188;16.374;2022-09-25T03:51:27;28.32;;;22.93;;
37303;SDS011;23188;51.188;16.374;2022-09-25T03:55:31;33.02;;;23.38;;
37303;SDS011;23188;51.188;16.374;2022-09-25T03:59:33;31.02;;;23.98;;
37303;SDS011;23188;51.188;16.374;2022-09-25T04:03:34;27.80;;;21.90;;
37303;SDS011;23188;51.188;16.374;2022-09-25T04:07:35;37.67;;;24.40;;
37303;SDS011;23188;51.188;16.374;2022-09-25T04:11:36;35.83;;;24.47;;
37303;SDS011;23188;51.188;16.374;2022-09-25T04:15:42;32.53;;;24.20;;
37303;SDS011;23188;51.188;16.374;2022-09-25T04:19:42;35.63;;;23.32;;
37303;SDS011;23188;51.188;16.374;2022-09-25T04:23:43;27.05;;;23.00;;
37303;SDS011;23188;51.188;16.374;2022-09-25T04:27:48;26.27;;;20.05;;
37303;SDS011;23188;51.188;16.374;2022-09-25T04:31:50;25.90;;;19.32;;
37303;SDS011;23188;51.188;16.374;2022-09-25T04:35:53;32.88;;;21.30;;
37303;SDS011;23188;51.188;16.374;2022-09-25T04:39:56;25.12;;;20.00;;
37303;SDS011;23188;51.188;16.374;2022-09-25T04:43:57;29.40;;;20.90;;
37303;SDS011;23188;51.188;16.374;2022-09-25T04:47:59;31.17;;;21.77;;
37303;SDS011;23188;51.188;16.374;2022-09-25T04:52:01;26.37;;;21.73;;
37303;SDS011;23188;51.188;16.374;2022-09-25T04:56:04;30.30;;;21.77;;
37303;SDS011;23188;51.188;16.374;2022-09-25T05:00:11;29.45;;;21.50;;
37303;SDS011;23188;51.188;16.374;2022-09-25T05:04:15;31.62;;;22.05;;
37303;SDS011;23188;51.188;16.374;2022-09-25T05:08:16;33.50;;;21.57;;
37303;SDS011;23188;51.188;16.374;2022-09-25T05:12:18;28.10;;;22.60;;
37303;SDS011;23188;51.188;16.374;2022-09-25T05:16:20;28.85;;;20.88;;
37303;SDS011;23188;51.188;16.374;2022-09-25T05:20:21;26.97;;;20.55;;
37303;SDS011;23188;51.188;16.374;2022-09-25T05:24:22;23.77;;;19.40;;
37303;SDS011;23188;51.188;16.374;2022-09-25T05:28:24;28.40;;;22.32;;
37303;SDS011;23188;51.188;16.374;2022-09-25T05:32:25;24.57;;;18.77;;
37303;SDS011;23188;51.188;16.374;2022-09-25T05:36:26;24.57;;;19.87;;
37303;SDS011;23188;51.188;16.374;2022-09-25T05:40:28;24.40;;;17.02;;
37303;SDS011;23188;51.188;16.374;2022-09-25T05:44:29;36.93;;;22.62;;
37303;SDS011;23188;51.188;16.374;2022-09-25T05:48:32;23.87;;;19.12;;
37303;SDS011;23188;51.188;16.374;2022-09-25T05:52:34;26.97;;;21.77;;
37303;SDS011;23188;51.188;16.374;2022-09-25T05:56:35;23.47;;;19.02;;
37303;SDS011;23188;51.188;16.374;2022-09-25T06:00:36;26.82;;;19.87;;
37303;SDS011;23188;51.188;16.374;2022-09-25T06:04:38;33.45;;;22.42;;
37303;SDS011;23188;51.188;16.374;2022-09-25T06:08:40;27.82;;;21.30;;
37303;SDS011;23188;51.188;16.374;2022-09-25T06:12:41;27.58;;;20.27;;
37303;SDS011;23188;51.188;16.374;2022-09-25T06:16:42;30.37;;;19.87;;
37303;SDS011;23188;51.188;16.374;2022-09-25T06:20:43;30.27;;;20.77;;
37303;SDS011;23188;51.188;16.374;2022-09-25T06:24:44;21.90;;;18.45;;
37303;SDS011;23188;51.188;16.374;2022-09-25T06:28:48;21.85;;;19.35;;
37303;SDS011;23188;51.188;16.374;2022-09-25T06:32:54;22.75;;;19.73;;
37303;SDS011;23188;51.188;16.374;2022-09-25T06:36:59;26.10;;;19.30;;
37303;SDS011;23188;51.188;16.374;2022-09-25T06:41:00;24.55;;;18.87;;
37303;SDS011;23188;51.188;16.374;2022-09-25T06:45:02;23.22;;;18.65;;
37303;SDS011;23188;51.188;16.374;2022-09-25T06:49:04;22.42;;;17.45;;
37303;SDS011;23188;51.188;16.374;2022-09-25T06:53:06;20.23;;;16.65;;
37303;SDS011;23188;51.188;16.374;2022-09-25T06:57:07;21.17;;;16.50;;
37303;SDS011;23188;51.188;16.374;2022-09-25T07:01:10;21.80;;;17.27;;
37303;SDS011;23188;51.188;16.374;2022-09-25T07:05:13;24.55;;;17.98;;
37303;SDS011;23188;51.188;16.374;2022-09-25T07:09:14;28.73;;;18.55;;
37303;SDS011;23188;51.188;16.374;2022-09-25T07:13:16;20.20;;;16.97;;
37303;SDS011;23188;51.188;16.374;2022-09-25T07:17:18;21.62;;;17.17;;
37303;SDS011;23188;51.188;16.374;2022-09-25T07:21:20;24.23;;;15.53;;
37303;SDS011;23188;51.188;16.374;2022-09-25T07:25:24;21.42;;;14.78;;
37303;SDS011;23188;51.188;16.374;2022-09-25T07:29:25;23.00;;;17.50;;
37303;SDS011;23188;51.188;16.374;2022-09-25T07:33:26;26.00;;;16.02;;
37303;SDS011;23188;51.188;16.374;2022-09-25T07:37:27;21.07;;;12.65;;
37303;SDS011;23188;51.188;16.374;2022-09-25T07:41:29;17.62;;;15.55;;
37303;SDS011;23188;51.188;16.374;2022-09-25T07:45:31;19.27;;;13.83;;
37303;SDS011;23188;51.188;16.374;2022-09-25T07:49:33;19.90;;;14.07;;
37303;SDS011;23188;51.188;16.374;2022-09-25T07:53:34;20.57;;;13.85;;
37303;SDS011;23188;51.188;16.374;2022-09-25T07:57:36;19.40;;;15.18;;
37303;SDS011;23188;51.188;16.374;2022-09-25T08:01:38;20.50;;;14.10;;
37303;SDS011;23188;51.188;16.374;2022-09-25T08:05:39;14.65;;;11.95;;
37303;SDS011;23188;51.188;16.374;2022-09-25T08:09:41;18.67;;;13.98;;
37303;SDS011;23188;51.188;16.374;2022-09-25T08:13:42;18.95;;;15.30;;
37303;SDS011;23188;51.188;16.374;2022-09-25T08:17:45;20.75;;;15.10;;
37303;SDS011;23188;51.188;16.374;2022-09-25T08:21:46;20.77;;;14.63;;
37303;SDS011;23188;51.188;16.374;2022-09-25T08:25:47;18.25;;;13.60;;
37303;SDS011;23188;51.188;16.374;2022-09-25T08:29:49;18.80;;;14.15;;
37303;SDS011;23188;51.188;16.374;2022-09-25T08:33:50;22.67;;;15.38;;
37303;SDS011;23188;51.188;16.374;2022-09-25T08:37:53;17.92;;;12.70;;
37303;SDS011;23188;51.188;16.374;2022-09-25T08:41:57;19.52;;;14.58;;
37303;SDS011;23188;51.188;16.374;2022-09-25T08:46:00;19.12;;;14.25;;
37303;SDS011;23188;51.188;16.374;2022-09-25T08:50:24;23.27;;;15.32;;
37303;SDS011;23188;51.188;16.374;2022-09-25T08:54:26;18.95;;;12.90;;
37303;SDS011;23188;51.188;16.374;2022-09-25T08:58:32;16.77;;;11.65;;
37303;SDS011;23188;51.188;16.374;2022-09-25T09:02:43;17.20;;;14.53;;
37303;SDS011;23188;51.188;16.374;2022-09-25T09:06:48;17.50;;;13.55;;
37303;SDS011;23188;51.188;16.374;2022-09-25T09:10:55;21.02;;;13.03;;
37303;SDS011;23188;51.188;16.374;2022-09-25T09:19:24;14.95;;;12.37;;
37303;SDS011;23188;51.188;16.374;2022-09-25T09:23:39;15.30;;;12.88;;
37303;SDS011;23188;51.188;16.374;2022-09-25T09:45:45;14.28;;;9.58;;
37303;SDS011;23188;51.188;16.374;2022-09-25T09:49:57;13.13;;;10.18;;
37303;SDS011;23188;51.188;16.374;2022-09-25T09:54:10;12.37;;;8.15;;
37303;SDS011;23188;51.188;16.374;2022-09-25T09:58:32;12.03;;;9.50;;
37303;SDS011;23188;51.188;16.374;2022-09-25T10:02:58;8.98;;;8.05;;
37303;SDS011;23188;51.188;16.374;2022-09-25T10:07:21;9.23;;;7.60;;
37303;SDS011;23188;51.188;16.374;2022-09-25T10:11:24;8.98;;;7.00;;
37303;SDS011;23188;51.188;16.374;2022-09-25T10:15:28;8.98;;;5.80;;
37303;SDS011;23188;51.188;16.374;2022-09-25T10:19:38;14.68;;;11.60;;
37303;SDS011;23188;51.188;16.374;2022-09-25T10:27:55;16.87;;;11.55;;
37303;SDS011;23188;51.188;16.374;2022-09-25T10:32:03;9.58;;;8.68;;
37303;SDS011;23188;51.188;16.374;2022-09-25T10:36:05;7.90;;;6.92;;
37303;SDS011;23188;51.188;16.374;2022-09-25T10:40:16;8.50;;;6.83;;
37303;SDS011;23188;51.188;16.374;2022-09-25T10:44:32;8.88;;;6.67;;
37303;SDS011;23188;51.188;16.374;2022-09-25T10:48:38;14.55;;;7.67;;
37303;SDS011;23188;51.188;16.374;2022-09-25T10:52:59;8.43;;;6.83;;
37303;SDS011;23188;51.188;16.374;2022-09-25T11:01:38;10.68;;;7.35;;
37303;SDS011;23188;51.188;16.374;2022-09-25T11:05:46;9.33;;;6.78;;
37303;SDS011;23188;51.188;16.374;2022-09-25T11:09:49;8.43;;;7.08;;
37303;SDS011;23188;51.188;16.374;2022-09-25T11:13:50;9.13;;;7.40;;
37303;SDS011;23188;51.188;16.374;2022-09-25T11:17:55;8.78;;;6.87;;
37303;SDS011;23188;51.188;16.374;2022-09-25T11:26:29;6.37;;;5.72;;
37303;SDS011;23188;51.188;16.374;2022-09-25T11:30:38;7.87;;;6.00;;
37303;SDS011;23188;51.188;16.374;2022-09-25T11:39:29;8.78;;;5.85;;
37303;SDS011;23188;51.188;16.374;2022-09-25T11:44:05;6.25;;;4.65;;
37303;SDS011;23188;51.188;16.374;2022-09-25T11:48:41;6.67;;;6.03;;
37303;SDS011;23188;51.188;16.374;2022-09-25T12:02:08;6.67;;;4.60;;
37303;SDS011;23188;51.188;16.374;2022-09-25T12:19:58;6.60;;;5.67;;
37303;SDS011;23188;51.188;16.374;2022-09-25T12:24:34;5.60;;;5.05;;
37303;SDS011;23188;51.188;16.374;2022-09-25T12:37:44;4.17;;;3.67;;
37303;SDS011;23188;51.188;16.374;2022-09-25T12:41:50;4.53;;;4.05;;
37303;SDS011;23188;51.188;16.374;2022-09-25T12:46:10;4.83;;;4.37;;
37303;SDS011;23188;51.188;16.374;2022-09-25T12:50:24;7.20;;;4.65;;
37303;SDS011;23188;51.188;16.374;2022-09-25T12:54:48;4.50;;;3.85;;
37303;SDS011;23188;51.188;16.374;2022-09-25T12:58:59;5.30;;;3.83;;
37303;SDS011;23188;51.188;16.374;2022-09-25T13:07:28;5.67;;;4.42;;
37303;SDS011;23188;51.188;16.374;2022-09-25T13:11:47;4.05;;;3.50;;
37303;SDS011;23188;51.188;16.374;2022-09-25T13:15:55;4.10;;;3.65;;
37303;SDS011;23188;51.188;16.374;2022-09-25T13:24:36;3.52;;;3.22;;
37303;SDS011;23188;51.188;16.374;2022-09-25T13:28:40;4.30;;;3.30;;
37303;SDS011;23188;51.188;16.374;2022-09-25T13:32:58;3.10;;;2.80;;
37303;SDS011;23188;51.188;16.374;2022-09-25T13:37:03;3.90;;;3.50;;
37303;SDS011;23188;51.188;16.374;2022-09-25T13:41:11;8.50;;;3.87;;
37303;SDS011;23188;51.188;16.374;2022-09-25T13:49:34;3.58;;;2.98;;
37303;SDS011;23188;51.188;16.374;2022-09-25T13:58:01;5.83;;;4.20;;
37303;SDS011;23188;51.188;16.374;2022-09-25T14:06:36;4.03;;;3.62;;
37303;SDS011;23188;51.188;16.374;2022-09-25T14:10:43;6.42;;;4.17;;
37303;SDS011;23188;51.188;16.374;2022-09-25T14:14:58;3.80;;;3.50;;
37303;SDS011;23188;51.188;16.374;2022-09-25T14:19:05;3.42;;;3.20;;
37303;SDS011;23188;51.188;16.374;2022-09-25T14:27:21;4.30;;;3.87;;
37303;SDS011;23188;51.188;16.374;2022-09-25T14:44:18;15.70;;;9.85;;
37303;SDS011;23188;51.188;16.374;2022-09-25T14:52:44;6.80;;;5.30;;
37303;SDS011;23188;51.188;16.374;2022-09-25T14:56:47;7.15;;;4.92;;
37303;SDS011;23188;51.188;16.374;2022-09-25T15:01:06;9.63;;;7.47;;
37303;SDS011;23188;51.188;16.374;2022-09-25T15:09:30;7.85;;;5.65;;
37303;SDS011;23188;51.188;16.374;2022-09-25T15:13:42;8.33;;;5.70;;
37303;SDS011;23188;51.188;16.374;2022-09-25T15:17:48;7.83;;;6.12;;
37303;SDS011;23188;51.188;16.374;2022-09-25T15:21:57;9.65;;;7.60;;
37303;SDS011;23188;51.188;16.374;2022-09-25T15:25:59;17.52;;;12.20;;
37303;SDS011;23188;51.188;16.374;2022-09-25T15:30:01;15.95;;;9.33;;
37303;SDS011;23188;51.188;16.374;2022-09-25T15:34:08;8.53;;;7.53;;
37303;SDS011;23188;51.188;16.374;2022-09-25T15:38:13;10.15;;;7.80;;
37303;SDS011;23188;51.188;16.374;2022-09-25T15:42:14;10.93;;;8.95;;
37303;SDS011;23188;51.188;16.374;2022-09-25T15:50:37;10.88;;;8.65;;
37303;SDS011;23188;51.188;16.374;2022-09-25T15:54:43;9.38;;;6.90;;
37303;SDS011;23188;51.188;16.374;2022-09-25T15:58:56;10.45;;;6.62;;
37303;SDS011;23188;51.188;16.374;2022-09-25T16:07:36;10.85;;;7.25;;
37303;SDS011;23188;51.188;16.374;2022-09-25T16:11:38;10.38;;;7.90;;
37303;SDS011;23188;51.188;16.374;2022-09-25T16:15:42;26.82;;;14.60;;
37303;SDS011;23188;51.188;16.374;2022-09-25T16:19:56;142.80;;;87.60;;
37303;SDS011;23188;51.188;16.374;2022-09-25T16:24:02;163.73;;;103.43;;
37303;SDS011;23188;51.188;16.374;2022-09-25T16:28:14;79.80;;;47.75;;
37303;SDS011;23188;51.188;16.374;2022-09-25T16:32:22;44.42;;;27.45;;
37303;SDS011;23188;51.188;16.374;2022-09-25T16:36:24;62.45;;;32.45;;
37303;SDS011;23188;51.188;16.374;2022-09-25T16:40:30;67.10;;;33.40;;
37303;SDS011;23188;51.188;16.374;2022-09-25T16:44:38;47.48;;;25.50;;
37303;SDS011;23188;51.188;16.374;2022-09-25T16:48:57;33.10;;;18.98;;
37303;SDS011;23188;51.188;16.374;2022-09-25T16:53:01;26.80;;;17.23;;
37303;SDS011;23188;51.188;16.374;2022-09-25T16:57:02;16.35;;;12.55;;
37303;SDS011;23188;51.188;16.374;2022-09-25T17:05:35;26.27;;;16.60;;
37303;SDS011;23188;51.188;16.374;2022-09-25T17:09:38;23.22;;;19.23;;
37303;SDS011;23188;51.188;16.374;2022-09-25T17:13:39;30.97;;;17.05;;
37303;SDS011;23188;51.188;16.374;2022-09-25T17:17:42;23.30;;;16.93;;
37303;SDS011;23188;51.188;16.374;2022-09-25T17:21:48;25.17;;;15.38;;
37303;SDS011;23188;51.188;16.374;2022-09-25T17:30:19;21.52;;;15.35;;
37303;SDS011;23188;51.188;16.374;2022-09-25T17:34:22;19.90;;;12.45;;
37303;SDS011;23188;51.188;16.374;2022-09-25T17:38:28;17.07;;;12.80;;
37303;SDS011;23188;51.188;16.374;2022-09-25T17:42:32;16.48;;;10.68;;
37303;SDS011;23188;51.188;16.374;2022-09-25T17:46:36;11.90;;;9.55;;
37303;SDS011;23188;51.188;16.374;2022-09-25T17:54:56;14.47;;;10.95;;
37303;SDS011;23188;51.188;16.374;2022-09-25T17:58:59;16.60;;;11.35;;
37303;SDS011;23188;51.188;16.374;2022-09-25T18:03:02;14.73;;;10.08;;
37303;SDS011;23188;51.188;16.374;2022-09-25T18:07:03;16.85;;;12.63;;
37303;SDS011;23188;51.188;16.374;2022-09-25T18:11:08;12.00;;;10.78;;
37303;SDS011;23188;51.188;16.374;2022-09-25T18:15:11;15.50;;;10.50;;
37303;SDS011;23188;51.188;16.374;2022-09-25T18:19:14;11.50;;;9.73;;
37303;SDS011;23188;51.188;16.374;2022-09-25T18:23:36;10.13;;;7.28;;
37303;SDS011;23188;51.188;16.374;2022-09-25T18:27:38;7.72;;;6.72;;
37303;SDS011;23188;51.188;16.374;2022-09-25T18:31:42;10.75;;;7.87;;
37303;SDS011;23188;51.188;16.374;2022-09-25T18:35:45;7.87;;;6.47;;
37303;SDS011;23188;51.188;16.374;2022-09-25T18:39:47;7.00;;;5.65;;
37303;SDS011;23188;51.188;16.374;2022-09-25T18:43:49;7.50;;;5.25;;
37303;SDS011;23188;51.188;16.374;2022-09-25T18:47:50;5.47;;;4.97;;
37303;SDS011;23188;51.188;16.374;2022-09-25T18:51:51;7.62;;;6.78;;
37303;SDS011;23188;51.188;16.374;2022-09-25T18:55:53;10.32;;;7.85;;
37303;SDS011;23188;51.188;16.374;2022-09-25T18:59:57;7.37;;;6.28;;
37303;SDS011;23188;51.188;16.374;2022-09-25T19:03:58;9.60;;;6.75;;
37303;SDS011;23188;51.188;16.374;2022-09-25T19:08:00;8.28;;;7.17;;
37303;SDS011;23188;51.188;16.374;2022-09-25T19:12:02;11.73;;;7.83;;
37303;SDS011;23188;51.188;16.374;2022-09-25T19:16:06;8.28;;;6.20;;
37303;SDS011;23188;51.188;16.374;2022-09-25T19:20:09;11.68;;;9.40;;
37303;SDS011;23188;51.188;16.374;2022-09-25T19:24:11;11.08;;;9.25;;
37303;SDS011;23188;51.188;16.374;2022-09-25T19:28:12;9.65;;;8.23;;
37303;SDS011;23188;51.188;16.374;2022-09-25T19:32:14;10.28;;;8.55;;
37303;SDS011;23188;51.188;16.374;2022-09-25T19:36:18;16.45;;;12.60;;
37303;SDS011;23188;51.188;16.374;2022-09-25T19:40:25;19.95;;;12.60;;
37303;SDS011;23188;51.188;16.374;2022-09-25T19:44:39;13.70;;;9.93;;
37303;SDS011;23188;51.188;16.374;2022-09-25T19:48:41;19.20;;;11.63;;
37303;SDS011;23188;51.188;16.374;2022-09-25T19:52:45;14.65;;;10.80;;
37303;SDS011;23188;51.188;16.374;2022-09-25T19:56:47;13.45;;;11.78;;
37303;SDS011;23188;51.188;16.374;2022-09-25T20:00:49;16.45;;;14.28;;
37303;SDS011;23188;51.188;16.374;2022-09-25T20:04:51;12.90;;;11.55;;
37303;SDS011;23188;51.188;16.374;2022-09-25T20:08:55;16.48;;;11.83;;
37303;SDS011;23188;51.188;16.374;2022-09-25T20:12:59;13.28;;;10.70;;
37303;SDS011;23188;51.188;16.374;2022-09-25T20:17:00;10.93;;;9.80;;
37303;SDS011;23188;51.188;16.374;2022-09-25T20:21:02;8.58;;;7.75;;
37303;SDS011;23188;51.188;16.374;2022-09-25T20:25:05;11.65;;;10.18;;
37303;SDS011;23188;51.188;16.374;2022-09-25T20:29:08;10.85;;;9.75;;
37303;SDS011;23188;51.188;16.374;2022-09-25T20:33:12;13.28;;;10.38;;
37303;SDS011;23188;51.188;16.374;2022-09-25T20:37:13;10.90;;;9.60;;
37303;SDS011;23188;51.188;16.374;2022-09-25T20:41:14;10.70;;;9.65;;
37303;SDS011;23188;51.188;16.374;2022-09-25T20:45:15;11.60;;;9.18;;
37303;SDS011;23188;51.188;16.374;2022-09-25T20:49:17;10.85;;;8.73;;
37303;SDS011;23188;51.188;16.374;2022-09-25T20:53:20;12.18;;;10.08;;
37303;SDS011;23188;51.188;16.374;2022-09-25T20:57:21;9.53;;;8.60;;
37303;SDS011;23188;51.188;16.374;2022-09-25T21:01:24;9.78;;;8.65;;
37303;SDS011;23188;51.188;16.374;2022-09-25T21:05:28;10.05;;;9.15;;
37303;SDS011;23188;51.188;16.374;2022-09-25T21:09:29;9.88;;;8.95;;
37303;SDS011;23188;51.188;16.374;2022-09-25T21:13:31;10.90;;;8.40;;
37303;SDS011;23188;51.188;16.374;2022-09-25T21:17:34;15.20;;;11.43;;
37303;SDS011;23188;51.188;16.374;2022-09-25T21:21:35;20.12;;;13.88;;
37303;SDS011;23188;51.188;16.374;2022-09-25T21:25:37;16.77;;;12.00;;
37303;SDS011;23188;51.188;16.374;2022-09-25T21:29:38;13.93;;;12.43;;
37303;SDS011;23188;51.188;16.374;2022-09-25T21:33:39;13.65;;;10.90;;
37303;SDS011;23188;51.188;16.374;2022-09-25T21:37:40;17.35;;;13.08;;
37303;SDS011;23188;51.188;16.374;2022-09-25T21:41:42;13.83;;;11.03;;
37303;SDS011;23188;51.188;16.374;2022-09-25T21:45:44;12.82;;;11.30;;
37303;SDS011;23188;51.188;16.374;2022-09-25T21:49:45;19.32;;;14.18;;
37303;SDS011;23188;51.188;16.374;2022-09-25T21:53:46;14.30;;;12.20;;
37303;SDS011;23188;51.188;16.374;2022-09-25T21:57:48;15.10;;;10.60;;
37303;SDS011;23188;51.188;16.374;2022-09-25T22:01:50;15.03;;;11.90;;
37303;SDS011;23188;51.188;16.374;2022-09-25T22:05:56;17.52;;;12.73;;
37303;SDS011;23188;51.188;16.374;2022-09-25T22:09:59;12.15;;;10.85;;
37303;SDS011;23188;51.188;16.374;2022-09-25T22:14:00;12.20;;;10.85;;
37303;SDS011;23188;51.188;16.374;2022-09-25T22:18:01;12.85;;;10.48;;
37303;SDS011;23188;51.188;16.374;2022-09-25T22:22:02;12.10;;;10.85;;
37303;SDS011;23188;51.188;16.374;2022-09-25T22:26:03;12.15;;;10.85;;
37303;SDS011;23188;51.188;16.374;2022-09-25T22:30:05;13.03;;;11.63;;
37303;SDS011;23188;51.188;16.374;2022-09-25T22:34:12;20.55;;;18.48;;
37303;SDS011;23188;51.188;16.374;2022-09-25T22:38:18;15.40;;;10.55;;
37303;SDS011;23188;51.188;16.374;2022-09-25T22:42:19;12.98;;;11.63;;
37303;SDS011;23188;51.188;16.374;2022-09-25T22:46:23;10.50;;;9.48;;
37303;SDS011;23188;51.188;16.374;2022-09-25T22:50:25;16.35;;;10.70;;
37303;SDS011;23188;51.188;16.374;2022-09-25T22:54:27;16.70;;;10.58;;
37303;SDS011;23188;51.188;16.374;2022-09-25T22:58:28;12.85;;;9.85;;
37303;SDS011;23188;51.188;16.374;2022-09-25T23:02:29;14.90;;;12.00;;
37303;SDS011;23188;51.188;16.374;2022-09-25T23:06:31;11.78;;;10.20;;
37303;SDS011;23188;51.188;16.374;2022-09-25T23:10:34;12.00;;;10.55;;
37303;SDS011;23188;51.188;16.374;2022-09-25T23:14:38;11.90;;;10.53;;
37303;SDS011;23188;51.188;16.374;2022-09-25T23:18:39;14.60;;;11.57;;
37303;SDS011;23188;51.188;16.374;2022-09-25T23:22:42;14.28;;;11.45;;
37303;SDS011;23188;51.188;16.374;2022-09-25T23:26:44;20.65;;;14.03;;
37303;SDS011;23188;51.188;16.374;2022-09-25T23:30:46;16.05;;;13.50;;
37303;SDS011;23188;51.188;16.374;2022-09-25T23:34:47;13.62;;;11.55;;
37303;SDS011;23188;51.188;16.374;2022-09-25T23:38:49;16.00;;;10.48;;
37303;SDS011;23188;51.188;16.374;2022-09-25T23:42:52;16.27;;;11.53;;
37303;SDS011;23188;51.188;16.374;2022-09-25T23:46:56;12.45;;;10.35;;
37303;SDS011;23188;51.188;16.374;2022-09-25T23:50:57;13.35;;;11.08;;
37303;SDS011;23188;51.188;16.374;2022-09-25T23:54:59;14.98;;;13.10;;
37303;SDS011;23188;51.188;16.374;2022-09-25T23:59:00;15.15;;;10.58;;
